Rogers, North Dakota
Current Conditions -  °F | °C
As of 3:56 PM on Sunday 25 Jan 2015 (Local Time) from KJMS Reporting Station
Overcast Overcast  
Wind Chill: 19°   Ceiling: 1200
Heat Index: 27°   Visibility: 10mi
Dew Point: 23°   Wind: 8mph
Humidity: 85%   Direction: 170°S
Pressure: 29.93"   Gusts: NA
Location:  47.07°N, 98.2°W
Report Text: KJMS 252156Z AUTO 17007KT 10SM OVC012 M03/M05 A2993 RMK AO2 SLP159 T10281050
Loading
Personal Weather Stations






























Interactive Weather Map New forecast layout! Learn more

10-Day Weather Forecast

Advertisements
Track Severe Weather on mobile